createdAt,value
2019-03-05T00:00:15.341Z,67.03
2019-03-05T00:00:55.931Z,67.03
2019-03-05T00:01:36.514Z,66.84
2019-03-05T00:02:17.111Z,66.84
2019-03-05T00:02:57.741Z,67.22
2019-03-05T00:03:38.339Z,66.94
2019-03-05T00:04:18.933Z,67.03
2019-03-05T00:04:59.523Z,67.13
2019-03-05T00:05:40.255Z,67.03
2019-03-05T00:06:20.849Z,66.94
2019-03-05T00:07:01.439Z,66.94
2019-03-05T00:07:42.051Z,66.94
2019-03-05T00:08:22.661Z,67.22
2019-03-05T00:09:03.281Z,67.61
2019-03-05T00:09:43.870Z,67.03
2019-03-05T00:10:24.474Z,67.51
2019-03-05T00:11:05.077Z,67.22
2019-03-05T00:11:45.731Z,67.22
2019-03-05T00:12:26.311Z,67.32
2019-03-05T00:13:06.919Z,67.22
2019-03-05T00:13:47.534Z,67.32
2019-03-05T00:14:28.255Z,67.42
2019-03-05T00:15:08.879Z,67.42
2019-03-05T00:15:49.523Z,67.42
2019-03-05T00:16:30.167Z,67.42
2019-03-05T00:17:10.777Z,67.42
2019-03-05T00:17:51.359Z,67.22
2019-03-05T00:18:31.939Z,67.22
2019-03-05T00:19:12.557Z,67.42
2019-03-05T00:19:53.143Z,67.32
2019-03-05T00:20:33.734Z,67.22
2019-03-05T00:21:14.325Z,67.22
2019-03-05T00:21:54.931Z,67.42
2019-03-05T00:22:35.536Z,67.13
2019-03-05T00:24:30.693Z,67.13
2019-03-05T00:25:11.279Z,67.32
2019-03-05T00:25:51.913Z,67.32
2019-03-05T00:26:32.508Z,67.22
2019-03-05T00:27:13.100Z,67.22
2019-03-05T00:27:53.696Z,67.22
2019-03-05T00:28:34.280Z,67.13
2019-03-05T00:29:14.905Z,67.51
2019-03-05T00:29:55.475Z,67.42
2019-03-05T00:30:36.075Z,67.42
2019-03-05T00:31:16.683Z,67.99
2019-03-05T00:31:57.315Z,67.9
2019-03-05T00:32:37.916Z,67.99
2019-03-05T00:33:18.507Z,67.99
2019-03-05T00:33:59.136Z,67.99
2019-03-05T00:34:39.742Z,67.99
2019-03-05T00:35:20.344Z,67.9
2019-03-05T00:36:00.931Z,67.99
2019-03-05T00:36:41.561Z,67.9
2019-03-05T00:37:22.209Z,67.9
2019-03-05T00:38:02.807Z,67.99
2019-03-05T00:38:43.417Z,67.9
2019-03-05T00:39:24.048Z,67.9
2019-03-05T00:40:04.626Z,67.9
2019-03-05T00:40:45.253Z,67.9
2019-03-05T00:41:25.867Z,67.99
2019-03-05T00:42:06.453Z,67.8
2019-03-05T00:42:47.049Z,67.61
2019-03-05T00:43:27.633Z,67.9
2019-03-05T00:44:08.237Z,68.09
2019-03-05T00:44:48.845Z,67.9
2019-03-05T00:45:29.481Z,68.09
2019-03-05T00:46:10.070Z,68.09
2019-03-05T00:46:50.657Z,67.8
2019-03-05T00:47:31.255Z,68.09
2019-03-05T00:48:11.855Z,68.09
2019-03-05T00:48:52.439Z,68.09
2019-03-05T00:49:33.066Z,67.99
2019-03-05T00:50:13.675Z,67.71
2019-03-05T00:50:54.269Z,67.99
2019-03-05T00:51:34.858Z,68.19
2019-03-05T00:52:15.437Z,67.9
2019-03-05T00:52:56.031Z,67.9
2019-03-05T00:53:36.627Z,67.99
2019-03-05T00:54:17.254Z,68.19
2019-03-05T00:54:57.809Z,68.19
2019-03-05T00:55:38.392Z,68.09
2019-03-05T00:56:19.004Z,67.8
2019-03-05T00:56:59.606Z,68.19
2019-03-05T00:57:40.195Z,67.9
2019-03-05T00:58:20.810Z,68.29
2019-03-05T00:59:01.394Z,68.19
2019-03-05T00:59:41.995Z,68.09
2019-03-05T01:00:22.580Z,68.29
2019-03-05T01:01:03.161Z,67.9
2019-03-05T01:01:46.433Z,68.19
2019-03-05T01:02:24.375Z,68.19
2019-03-05T01:03:04.981Z,67.9
2019-03-05T01:03:45.571Z,67.8
2019-03-05T01:04:26.153Z,67.9
2019-03-05T01:05:06.751Z,67.9
2019-03-05T01:05:47.353Z,67.9
2019-03-05T01:06:27.939Z,67.99
2019-03-05T01:07:08.521Z,67.9
2019-03-05T01:07:49.109Z,68.09
2019-03-05T01:08:29.725Z,67.8
2019-03-05T01:09:10.310Z,67.71
2019-03-05T01:09:50.920Z,67.9
2019-03-05T01:10:31.510Z,67.8
2019-03-05T01:11:12.098Z,67.8
2019-03-05T01:11:52.683Z,67.99
2019-03-05T01:12:33.266Z,67.99
2019-03-05T01:13:13.853Z,67.8
2019-03-05T01:13:54.447Z,67.99
2019-03-05T01:14:35.037Z,67.8
2019-03-05T01:15:15.643Z,67.9
2019-03-05T01:15:56.234Z,68.19
2019-03-05T01:16:36.826Z,67.99
2019-03-05T01:17:17.451Z,68.29
2019-03-05T01:17:58.036Z,67.99
2019-03-05T01:18:38.644Z,67.99
2019-03-05T01:19:19.229Z,67.99
2019-03-05T01:19:59.811Z,68.09
2019-03-05T01:20:40.407Z,68.09
2019-03-05T01:21:21.008Z,68.09
2019-03-05T01:22:01.587Z,67.9
2019-03-05T01:22:42.172Z,67.9
2019-03-05T01:23:22.818Z,68.19
2019-03-05T01:24:03.408Z,67.9
2019-03-05T01:24:43.999Z,68.09
2019-03-05T01:25:24.593Z,68.09
2019-03-05T01:26:05.175Z,68.09
2019-03-05T01:26:45.775Z,68.19
2019-03-05T01:27:26.368Z,68.57
2019-03-05T01:28:06.950Z,68.19
2019-03-05T01:28:47.547Z,67.99
2019-03-05T01:29:28.145Z,68.19
2019-03-05T01:30:08.740Z,67.99
2019-03-05T01:30:49.337Z,68.19
2019-03-05T01:31:29.958Z,67.99
2019-03-05T01:32:10.543Z,68.67
2019-03-05T01:32:51.149Z,68.48
2019-03-05T01:33:31.740Z,68.76
2019-03-05T01:34:12.328Z,68.29
2019-03-05T01:34:52.911Z,68.67
2019-03-05T01:35:33.504Z,68.57
2019-03-05T01:36:14.116Z,67.99
2019-03-05T01:36:54.705Z,67.99
2019-03-05T01:37:35.316Z,68.57
2019-03-05T01:38:15.921Z,68.48
2019-03-05T01:38:56.495Z,68.48
2019-03-05T01:39:37.085Z,68.29
2019-03-05T01:40:17.672Z,68.29
2019-03-05T01:40:58.260Z,68.76
2019-03-05T01:41:38.868Z,68.86
2019-03-05T01:42:19.471Z,68.76
2019-03-05T01:43:00.067Z,68.38
2019-03-05T01:43:40.645Z,68.86
2019-03-05T01:44:21.235Z,68.76
2019-03-05T01:45:01.844Z,68.48
2019-03-05T01:45:42.442Z,68.38
2019-03-05T01:46:23.055Z,68.48
2019-03-05T01:47:03.638Z,68.48
2019-03-05T01:47:44.230Z,68.19
2019-03-05T01:48:24.864Z,68.29
2019-03-05T01:49:05.475Z,68.67
2019-03-05T01:49:46.075Z,68.19
2019-03-05T01:50:26.714Z,68.19
2019-03-05T01:51:07.298Z,68.67
2019-03-05T01:51:47.911Z,68.19
2019-03-05T01:52:28.517Z,68.38
2019-03-05T01:53:09.108Z,68.38
2019-03-05T01:53:49.697Z,68.48
2019-03-05T01:54:30.290Z,68.29
2019-03-05T01:55:10.872Z,68.67
2019-03-05T01:55:51.484Z,68.48
2019-03-05T01:56:32.082Z,68.57
2019-03-05T01:57:12.673Z,68.48
2019-03-05T01:57:53.262Z,68.57
2019-03-05T01:58:33.868Z,68.19
2019-03-05T01:59:14.476Z,68.48
2019-03-05T01:59:55.066Z,68.29
2019-03-05T02:00:35.644Z,68.57
2019-03-05T02:01:16.244Z,68.29
2019-03-05T02:01:56.832Z,68.38
2019-03-05T02:02:37.436Z,68.38
2019-03-05T02:03:18.024Z,68.38
2019-03-05T02:03:58.616Z,68.48
2019-03-05T02:04:39.196Z,68.29
2019-03-05T02:05:19.872Z,68.38
2019-03-05T02:06:00.473Z,68.29
2019-03-05T02:06:41.056Z,68.19
2019-03-05T02:07:21.668Z,68.09
2019-03-05T02:08:02.253Z,68.48
2019-03-05T02:08:42.840Z,68.29
2019-03-05T02:09:23.439Z,68.48
2019-03-05T02:10:04.044Z,68.19
2019-03-05T02:10:44.627Z,68.48
2019-03-05T02:11:25.209Z,68.29
2019-03-05T02:12:05.818Z,68.09
2019-03-05T02:12:46.412Z,68.48
2019-03-05T02:13:27.001Z,68.38
2019-03-05T02:14:07.648Z,68.38
2019-03-05T02:14:48.222Z,68.48
2019-03-05T02:15:28.816Z,68.57
2019-03-05T02:16:09.410Z,68.29
2019-03-05T02:16:50.002Z,68.29
2019-03-05T02:17:30.590Z,68.48
2019-03-05T02:18:11.184Z,68.48
2019-03-05T02:18:51.796Z,68.48
2019-03-05T02:19:32.450Z,68.48
2019-03-05T02:20:13.039Z,68.38
2019-03-05T02:20:53.647Z,68.48
2019-03-05T02:21:34.236Z,68.48
2019-03-05T02:22:14.828Z,68.57
2019-03-05T02:22:55.434Z,68.67
2019-03-05T02:23:36.036Z,68.48
2019-03-05T02:24:16.645Z,68.57
2019-03-05T02:24:57.247Z,68.86
2019-03-05T02:25:37.850Z,68.76
2019-03-05T02:26:18.454Z,68.86
2019-03-05T02:26:59.063Z,69.06
2019-03-05T02:27:39.654Z,68.96
2019-03-05T02:28:20.266Z,68.96
2019-03-05T02:29:00.854Z,68.96
2019-03-05T02:29:41.443Z,69.06
2019-03-05T02:30:22.027Z,69.15
2019-03-05T02:31:02.607Z,68.67
2019-03-05T02:31:43.196Z,68.67
2019-03-05T02:32:23.795Z,68.96
2019-03-05T02:33:04.402Z,68.76
2019-03-05T02:33:45.013Z,68.96
2019-03-05T02:34:25.590Z,68.86
2019-03-05T02:35:06.177Z,68.86
2019-03-05T02:35:46.773Z,68.96
2019-03-05T02:36:27.356Z,68.76
2019-03-05T02:37:07.941Z,68.86
2019-03-05T02:37:48.531Z,68.76
2019-03-05T02:38:29.123Z,68.76
2019-03-05T02:39:09.729Z,68.86
2019-03-05T02:39:50.341Z,68.86
2019-03-05T02:40:30.928Z,68.67
2019-03-05T02:41:11.507Z,68.67
2019-03-05T02:41:52.088Z,68.76
2019-03-05T02:42:32.671Z,68.76
2019-03-05T02:43:13.270Z,68.76
2019-03-05T02:43:53.914Z,68.96
2019-03-05T02:44:34.443Z,68.76
2019-03-05T02:45:15.035Z,68.67
2019-03-05T02:45:55.623Z,68.86
2019-03-05T02:46:36.212Z,68.76
2019-03-05T02:47:16.798Z,68.86
2019-03-05T02:47:57.389Z,68.76
2019-03-05T02:48:37.991Z,68.96
2019-03-05T02:49:18.588Z,68.96
2019-03-05T02:49:59.170Z,68.86
2019-03-05T02:50:39.775Z,68.96
2019-03-05T02:51:20.357Z,68.86
2019-03-05T02:52:00.960Z,68.76
2019-03-05T02:52:41.557Z,68.76
2019-03-05T02:53:22.169Z,68.86
2019-03-05T02:54:02.767Z,68.96
2019-03-05T02:54:43.353Z,68.86
2019-03-05T02:55:23.937Z,68.76
2019-03-05T02:56:04.511Z,68.76
2019-03-05T02:56:45.112Z,68.86
2019-03-05T02:57:25.730Z,68.96
2019-03-05T02:58:06.319Z,68.86
2019-03-05T02:58:46.919Z,68.86
2019-03-05T02:59:27.518Z,68.76
2019-03-05T03:00:08.118Z,68.76
2019-03-05T03:00:48.723Z,68.76
2019-03-05T03:01:29.318Z,68.67
2019-03-05T03:02:09.927Z,68.76
2019-03-05T03:02:50.511Z,68.76
2019-03-05T03:03:31.088Z,68.76
2019-03-05T03:04:11.681Z,68.86
2019-03-05T03:04:52.427Z,68.96
2019-03-05T03:05:32.881Z,68.86
2019-03-05T03:06:13.465Z,68.96
2019-03-05T03:06:54.056Z,68.96
2019-03-05T03:07:34.670Z,68.96
2019-03-05T03:08:15.241Z,69.06
2019-03-05T03:08:55.823Z,68.86
2019-03-05T03:09:36.404Z,68.86
2019-03-05T03:10:16.985Z,68.76
2019-03-05T03:10:57.572Z,68.86
2019-03-05T03:11:38.155Z,68.76
2019-03-05T03:12:18.736Z,68.86
2019-03-05T03:12:59.337Z,68.86
2019-03-05T03:13:39.923Z,68.76
2019-03-05T03:14:20.512Z,68.86
2019-03-05T03:15:01.107Z,68.76
2019-03-05T03:15:41.686Z,68.86
2019-03-05T03:16:22.270Z,68.86
2019-03-05T03:17:02.869Z,68.76
2019-03-05T03:17:43.465Z,68.48
2019-03-05T03:18:24.059Z,68.76
2019-03-05T03:19:04.653Z,68.76
2019-03-05T03:19:45.269Z,69.06
2019-03-05T03:20:25.870Z,68.57
2019-03-05T03:21:06.467Z,68.96
2019-03-05T03:21:47.065Z,68.86
2019-03-05T03:22:27.657Z,68.86
2019-03-05T03:23:08.249Z,68.76
2019-03-05T03:23:48.838Z,68.86
2019-03-05T03:24:29.431Z,68.86
2019-03-05T03:25:10.021Z,68.86
2019-03-05T03:25:50.606Z,68.86
2019-03-05T03:26:31.199Z,69.15
2019-03-05T03:27:11.790Z,69.06
2019-03-05T03:27:52.418Z,69.06
2019-03-05T03:28:32.956Z,68.76
2019-03-05T03:29:13.549Z,69.06
2019-03-05T03:29:54.137Z,69.06
2019-03-05T03:30:34.721Z,68.67
2019-03-05T03:31:15.309Z,68.86
2019-03-05T03:31:55.912Z,68.76
2019-03-05T03:32:36.503Z,68.86
2019-03-05T03:33:17.099Z,68.86
2019-03-05T03:33:57.683Z,68.86
2019-03-05T03:34:38.259Z,68.76
2019-03-05T03:35:18.852Z,69.06
2019-03-05T03:35:59.445Z,69.15
2019-03-05T03:36:40.033Z,69.06
2019-03-05T03:37:20.618Z,69.15
2019-03-05T03:38:01.231Z,69.15
2019-03-05T03:38:41.897Z,68.38
2019-03-05T03:39:22.481Z,69.06
2019-03-05T03:40:06.056Z,69.15
2019-03-05T03:40:43.683Z,68.57
2019-03-05T03:41:24.273Z,68.19
2019-03-05T03:42:04.870Z,68.67
2019-03-05T03:42:45.469Z,68.86
2019-03-05T03:43:26.067Z,69.06
2019-03-05T03:44:06.651Z,69.06
2019-03-05T03:44:47.249Z,68.48
2019-03-05T03:45:27.834Z,68.57
2019-03-05T03:46:08.422Z,68.96
2019-03-05T03:46:49.073Z,68.57
2019-03-05T03:47:29.623Z,69.06
2019-03-05T03:48:10.206Z,68.86
2019-03-05T03:48:50.791Z,69.06
2019-03-05T03:49:31.384Z,68.67
2019-03-05T03:50:11.969Z,68.19
2019-03-05T03:50:52.571Z,69.06
2019-03-05T03:51:33.169Z,68.67
2019-03-05T03:52:13.754Z,68.86
2019-03-05T03:52:54.340Z,68.29
2019-03-05T03:53:34.936Z,68.57
2019-03-05T03:54:15.551Z,68.48
2019-03-05T03:54:56.139Z,68.67
2019-03-05T03:55:36.795Z,68.76
2019-03-05T03:56:17.369Z,68.76
2019-03-05T03:56:57.969Z,68.86
2019-03-05T03:57:38.571Z,68.96
2019-03-05T03:58:19.182Z,68.86
2019-03-05T03:58:59.783Z,68.96
2019-03-05T03:59:40.372Z,68.57
2019-03-05T04:00:20.956Z,68.67
2019-03-05T04:01:01.545Z,68.96
2019-03-05T04:01:42.134Z,68.76
2019-03-05T04:02:22.743Z,68.86
2019-03-05T04:03:03.329Z,68.48
2019-03-05T04:03:43.923Z,68.96
2019-03-05T04:04:24.517Z,68.96
2019-03-05T04:05:05.123Z,68.86
2019-03-05T04:05:45.705Z,68.48
2019-03-05T04:06:26.288Z,68.86
2019-03-05T04:07:06.891Z,68.57
2019-03-05T04:07:47.481Z,68.48
2019-03-05T04:08:28.068Z,68.86
2019-03-05T04:09:08.645Z,68.96
2019-03-05T04:09:49.237Z,68.48
2019-03-05T04:10:29.836Z,68.48
2019-03-05T04:11:10.425Z,68.86
2019-03-05T04:11:51.015Z,68.86
2019-03-05T04:12:31.621Z,68.76
2019-03-05T04:13:12.263Z,68.57
2019-03-05T04:13:52.846Z,68.86
2019-03-05T04:14:33.436Z,68.48
2019-03-05T04:15:14.021Z,68.96
2019-03-05T04:15:54.663Z,68.86
2019-03-05T04:16:35.206Z,68.86
2019-03-05T04:17:15.813Z,68.96
2019-03-05T04:17:56.383Z,68.86
2019-03-05T04:18:36.987Z,68.86
2019-03-05T04:19:17.563Z,68.96
2019-03-05T04:19:58.165Z,68.96
2019-03-05T04:20:38.757Z,68.86
2019-03-05T04:21:20.100Z,68.48
2019-03-05T04:21:59.938Z,68.86
2019-03-05T04:22:40.521Z,68.96
2019-03-05T04:23:21.103Z,68.76
2019-03-05T04:24:01.687Z,68.96
2019-03-05T04:24:42.321Z,68.96
2019-03-05T04:25:22.931Z,68.86
2019-03-05T04:26:03.516Z,68.38
2019-03-05T04:26:44.128Z,68.48
2019-03-05T04:27:24.721Z,68.86
2019-03-05T04:28:05.340Z,68.96
2019-03-05T04:28:45.923Z,68.57
2019-03-05T04:29:26.499Z,68.48
2019-03-05T04:30:07.099Z,68.57
2019-03-05T04:30:47.681Z,68.96
2019-03-05T04:31:28.265Z,68.96
2019-03-05T04:32:08.861Z,68.96
2019-03-05T04:32:49.447Z,68.48
2019-03-05T04:33:30.053Z,68.67
2019-03-05T04:34:10.639Z,68.76
2019-03-05T04:34:51.223Z,68.76
2019-03-05T04:35:31.835Z,68.76
2019-03-05T04:36:12.409Z,68.76
2019-03-05T04:36:53.001Z,68.76
2019-03-05T04:37:33.595Z,68.76
2019-03-05T04:38:14.181Z,68.57
2019-03-05T04:38:54.758Z,68.57
2019-03-05T04:39:35.371Z,68.57
2019-03-05T04:40:15.970Z,68.57
2019-03-05T04:40:56.579Z,68.76
2019-03-05T04:41:37.185Z,68.86
2019-03-05T04:42:17.811Z,68.73
2019-03-05T04:42:58.429Z,68.76
2019-03-05T04:43:39.023Z,68.86
2019-03-05T04:44:19.609Z,68.57
2019-03-05T04:45:00.330Z,68.86
2019-03-05T04:45:40.801Z,68.67
2019-03-05T04:46:21.390Z,68.86
2019-03-05T04:47:01.985Z,68.38
2019-03-05T04:47:42.591Z,68.67
2019-03-05T04:48:23.180Z,68.44
2019-03-05T04:49:03.771Z,68.48
2019-03-05T04:49:44.373Z,68.86
2019-03-05T04:50:24.976Z,68.67
2019-03-05T04:51:05.561Z,68.76
2019-03-05T04:51:46.139Z,68.86
2019-03-05T04:52:26.741Z,68.54
2019-03-05T04:53:07.353Z,68.86
2019-03-05T04:53:47.955Z,68.86
2019-03-05T04:54:28.561Z,68.48
2019-03-05T04:55:09.155Z,68.67
2019-03-05T04:55:49.752Z,68.48
2019-03-05T04:56:30.342Z,68.67
2019-03-05T04:57:10.931Z,68.76
2019-03-05T04:57:51.527Z,68.73
2019-03-05T04:58:32.121Z,68.57
2019-03-05T04:59:12.717Z,68.67
2019-03-05T04:59:53.315Z,68.57
2019-03-05T05:00:33.905Z,68.57
2019-03-05T05:01:14.523Z,68.86
2019-03-05T05:01:55.111Z,68.86
2019-03-05T05:02:35.713Z,68.48
2019-03-05T05:03:16.301Z,68.48
2019-03-05T05:03:56.891Z,68.63
2019-03-05T05:04:37.471Z,68.67
2019-03-05T05:05:18.065Z,68.54
2019-03-05T05:05:58.647Z,68.83
2019-03-05T05:06:39.229Z,68.57
2019-03-05T05:07:19.811Z,68.54
2019-03-05T05:08:00.397Z,68.63
2019-03-05T05:08:41.030Z,68.73
2019-03-05T05:09:21.603Z,68.76
2019-03-05T05:10:02.206Z,68.76
2019-03-05T05:10:42.795Z,68.76
2019-03-05T05:11:23.381Z,68.73
2019-03-05T05:12:03.976Z,68.73
2019-03-05T05:12:44.581Z,68.76
2019-03-05T05:13:25.173Z,68.76
2019-03-05T05:14:05.783Z,68.44
2019-03-05T05:14:46.376Z,68.54
2019-03-05T05:15:26.961Z,68.86
2019-03-05T05:16:07.577Z,68.54
2019-03-05T05:16:48.167Z,68.63
2019-03-05T05:17:28.753Z,68.57
2019-03-05T05:18:09.376Z,68.67
2019-03-05T05:18:49.985Z,68.67
2019-03-05T05:19:30.587Z,68.54
2019-03-05T05:20:11.183Z,68.86
2019-03-05T05:20:51.767Z,68.57
2019-03-05T05:21:32.358Z,68.63
2019-03-05T05:22:12.954Z,68.54
2019-03-05T05:22:53.547Z,68.48
2019-03-05T05:23:34.176Z,68.63
2019-03-05T05:24:14.767Z,68.73
2019-03-05T05:24:55.371Z,68.73
2019-03-05T05:25:35.971Z,68.76
2019-03-05T05:26:17.754Z,68.76
2019-03-05T05:26:57.191Z,68.83
2019-03-05T05:27:37.787Z,68.63
2019-03-05T05:28:18.376Z,68.67
2019-03-05T05:28:58.969Z,68.83
2019-03-05T05:29:39.553Z,68.44
2019-03-05T05:30:20.143Z,68.57
2019-03-05T05:31:00.719Z,68.73
2019-03-05T05:31:41.293Z,68.67
2019-03-05T05:32:21.889Z,68.63
2019-03-05T05:33:02.485Z,68.83
2019-03-05T05:33:43.077Z,68.67
2019-03-05T05:34:23.666Z,68.83
2019-03-05T05:35:04.295Z,68.83
2019-03-05T05:35:44.880Z,68.83
2019-03-05T05:36:25.463Z,68.63
2019-03-05T05:37:06.063Z,68.92
2019-03-05T05:37:46.677Z,68.73
2019-03-05T05:38:27.266Z,68.83
2019-03-05T05:39:07.861Z,68.63
2019-03-05T05:39:48.440Z,68.83
2019-03-05T05:40:29.031Z,68.83
2019-03-05T05:41:09.613Z,68.48
2019-03-05T05:41:50.207Z,68.63
2019-03-05T05:42:30.797Z,68.54
2019-03-05T05:43:11.382Z,68.54
2019-03-05T05:43:51.963Z,68.63
2019-03-05T05:44:32.555Z,68.67
2019-03-05T05:45:13.155Z,68.48
2019-03-05T05:45:53.757Z,68.57
2019-03-05T05:46:34.371Z,68.63
2019-03-05T05:47:14.983Z,69.34
2019-03-05T05:47:55.571Z,68.63
2019-03-05T05:48:36.171Z,68.48
2019-03-05T05:49:16.781Z,68.63
2019-03-05T05:49:57.361Z,68.48
2019-03-05T05:50:37.950Z,68.63
2019-03-05T05:51:18.541Z,68.67
2019-03-05T05:51:59.139Z,68.44
2019-03-05T05:52:39.720Z,68.54
2019-03-05T05:53:20.319Z,68.44
2019-03-05T05:54:00.905Z,68.63
2019-03-05T05:54:41.497Z,68.35
2019-03-05T05:55:22.092Z,68.63
2019-03-05T05:56:02.713Z,68.35
2019-03-05T05:56:43.265Z,68.57
2019-03-05T05:57:23.862Z,68.44
2019-03-05T05:58:04.455Z,68.63
2019-03-05T05:58:45.034Z,68.83
2019-03-05T05:59:25.650Z,68.54
2019-03-05T06:00:06.227Z,68.54
2019-03-05T06:00:46.815Z,68.44
2019-03-05T06:01:27.407Z,68.63
2019-03-05T06:02:08.035Z,69.02
2019-03-05T06:02:48.663Z,68.83
2019-03-05T06:03:29.273Z,68.92
2019-03-05T06:04:09.873Z,68.44
2019-03-05T06:04:50.473Z,68.73
2019-03-05T06:05:31.095Z,68.44
2019-03-05T06:06:11.699Z,68.73
2019-03-05T06:06:52.309Z,68.83
2019-03-05T06:07:32.901Z,69.02
2019-03-05T06:08:13.501Z,68.83
2019-03-05T06:08:54.111Z,68.73
2019-03-05T06:09:34.717Z,68.73
2019-03-05T06:10:15.307Z,68.54
2019-03-05T06:10:55.895Z,68.83
2019-03-05T06:11:36.501Z,68.92
2019-03-05T06:12:17.098Z,68.54
2019-03-05T06:12:57.677Z,68.73
2019-03-05T06:13:38.273Z,68.92
2019-03-05T06:14:18.874Z,69.02
2019-03-05T06:14:59.486Z,69.12
2019-03-05T06:15:40.068Z,68.44
2019-03-05T06:16:20.661Z,68.73
2019-03-05T06:17:01.247Z,68.92
2019-03-05T06:17:41.827Z,68.73
2019-03-05T06:18:22.427Z,69.02
2019-03-05T06:19:03.019Z,68.83
2019-03-05T06:19:43.845Z,69.21
2019-03-05T06:20:24.447Z,68.73
2019-03-05T06:21:05.035Z,69.02
2019-03-05T06:21:45.621Z,69.02
2019-03-05T06:22:26.228Z,68.73
2019-03-05T06:23:06.807Z,69.02
2019-03-05T06:23:47.393Z,69.02
2019-03-05T06:24:27.987Z,68.73
2019-03-05T06:25:08.585Z,68.83
2019-03-05T06:25:49.181Z,68.73
2019-03-05T06:26:29.777Z,69.02
2019-03-05T06:27:10.428Z,69.02
2019-03-05T06:27:51.019Z,68.44
2019-03-05T06:28:31.615Z,69.02
2019-03-05T06:29:12.203Z,68.83
2019-03-05T06:29:52.805Z,68.83
2019-03-05T06:30:33.397Z,68.73
2019-03-05T06:31:13.971Z,68.83
2019-03-05T06:31:54.570Z,68.73
2019-03-05T06:32:35.173Z,69.12
2019-03-05T06:33:15.766Z,68.83
2019-03-05T06:33:56.368Z,69.12
2019-03-05T06:34:37.024Z,68.73
2019-03-05T06:35:17.628Z,68.83
2019-03-05T06:35:58.209Z,69.02
2019-03-05T06:36:38.795Z,68.73
2019-03-05T06:37:19.391Z,68.73
2019-03-05T06:37:59.976Z,68.73
2019-03-05T06:38:40.551Z,68.54
2019-03-05T06:39:21.141Z,69.12
2019-03-05T06:40:01.727Z,68.48
2019-03-05T06:40:42.341Z,68.73
2019-03-05T06:41:22.937Z,68.92
2019-03-05T06:42:03.531Z,69.02
2019-03-05T06:42:44.184Z,69.02
2019-03-05T06:43:24.709Z,68.83
2019-03-05T06:44:05.307Z,68.63
2019-03-05T06:44:45.898Z,68.44
2019-03-05T06:45:26.495Z,68.63
2019-03-05T06:46:07.083Z,68.57
2019-03-05T06:46:47.669Z,68.63
2019-03-05T06:47:28.253Z,68.44
2019-03-05T06:48:08.845Z,68.57
2019-03-05T06:48:49.442Z,68.44
2019-03-05T06:49:30.025Z,68.54
2019-03-05T06:50:10.623Z,69.02
2019-03-05T06:50:51.215Z,68.54
2019-03-05T06:51:31.799Z,68.73
2019-03-05T06:52:12.399Z,69.02
2019-03-05T06:52:53.009Z,68.83
2019-03-05T06:53:33.580Z,68.73
2019-03-05T06:54:14.169Z,69.06
2019-03-05T06:54:54.759Z,69.02
2019-03-05T06:55:35.359Z,69.02
2019-03-05T06:56:16.016Z,68.57
2019-03-05T06:56:56.688Z,68.73
2019-03-05T06:57:37.295Z,68.73
2019-03-05T06:58:17.883Z,68.73
2019-03-05T06:58:58.469Z,68.67
2019-03-05T06:59:39.060Z,69.02
2019-03-05T07:00:19.647Z,69.02
2019-03-05T07:01:00.271Z,68.63
2019-03-05T07:03:20.759Z,68.86
2019-03-05T07:04:01.361Z,68.92
2019-03-05T07:04:41.957Z,68.73
2019-03-05T07:05:22.569Z,69.15
2019-03-05T07:06:03.162Z,68.76
2019-03-05T07:06:43.758Z,69.15
2019-03-05T07:07:24.348Z,69.4
2019-03-05T07:08:04.996Z,69.73
2019-03-05T07:08:45.597Z,69.15
2019-03-05T07:09:26.201Z,69.4
2019-03-05T07:10:06.803Z,70.01
2019-03-05T07:10:47.395Z,70.11
2019-03-05T07:11:27.996Z,70.4
2019-03-05T07:12:10.407Z,70.4
2019-03-05T07:12:51.008Z,70.59
2019-03-05T07:13:31.593Z,71.08
2019-03-05T07:14:12.193Z,69.92
2019-03-05T07:14:52.793Z,70.21
2019-03-05T07:15:33.419Z,70.11
2019-03-05T07:16:14.008Z,70.21
2019-03-05T07:16:54.613Z,70.4
2019-03-05T07:17:35.209Z,69.92
2019-03-05T07:18:15.829Z,69.89
2019-03-05T07:18:58.234Z,69.82
2019-03-05T07:19:38.827Z,69.82
2019-03-05T07:20:19.432Z,69.98
2019-03-05T07:21:00.039Z,69.79
2019-03-05T07:21:40.645Z,69.69
2019-03-05T07:22:21.249Z,69.63
2019-03-05T07:23:01.869Z,69.63
2019-03-05T07:23:43.168Z,69.6
2019-03-05T07:24:23.062Z,69.63
2019-03-05T07:25:03.653Z,70.17
2019-03-05T07:25:44.250Z,69.5
2019-03-05T07:26:24.846Z,69.63
2019-03-05T07:27:05.441Z,69.63
2019-03-05T07:27:46.041Z,69.53
2019-03-05T07:28:26.624Z,69.06
2019-03-05T07:29:07.236Z,69.02
2019-03-05T07:29:47.865Z,69.5
2019-03-05T07:30:28.455Z,69.53
2019-03-05T07:31:09.043Z,68.86
2019-03-05T07:31:49.633Z,69.44
2019-03-05T07:32:30.233Z,69.02
2019-03-05T07:33:10.825Z,69.02
2019-03-05T07:33:51.401Z,69.34
2019-03-05T07:34:32.017Z,69.24
2019-03-05T07:35:12.619Z,69.24
2019-03-05T07:35:53.232Z,69.24
2019-03-05T07:36:33.824Z,69.15
2019-03-05T07:37:14.409Z,69.24
2019-03-05T07:37:55.059Z,69.44
2019-03-05T07:38:35.593Z,69.02
2019-03-05T07:39:16.187Z,69.34
2019-03-05T07:39:56.778Z,69.21
2019-03-05T07:40:37.377Z,69.02
2019-03-05T07:41:17.981Z,69.02
2019-03-05T07:41:58.577Z,68.92
2019-03-05T07:42:39.223Z,69.5
2019-03-05T07:43:19.831Z,68.92
2019-03-05T07:44:00.414Z,68.96
2019-03-05T07:44:40.999Z,68.92
2019-03-05T07:45:21.588Z,69.12
2019-03-05T07:46:02.203Z,68.86
2019-03-05T07:46:42.834Z,69.06
2019-03-05T07:47:23.443Z,69.24
2019-03-05T07:48:04.057Z,69.15
2019-03-05T07:48:44.639Z,69.15
2019-03-05T07:49:25.236Z,69.12
2019-03-05T07:50:05.844Z,69.15
2019-03-05T07:50:46.462Z,69.12
2019-03-05T07:51:27.050Z,69.15
2019-03-05T07:52:07.665Z,69.24
2019-03-05T07:52:48.269Z,69.12
2019-03-05T07:53:28.866Z,69.24
2019-03-05T07:54:09.463Z,69.15
2019-03-05T07:54:52.304Z,69.15
2019-03-05T07:55:30.666Z,69.15
2019-03-05T07:56:11.277Z,69.53
2019-03-05T07:56:51.868Z,69.34
2019-03-05T07:57:32.482Z,69.34
2019-03-05T07:58:13.067Z,69.44
2019-03-05T07:58:53.689Z,69.53
2019-03-05T07:59:34.271Z,69.53
2019-03-05T08:00:14.889Z,69.4
2019-03-05T08:00:55.537Z,69.34
2019-03-05T08:01:36.140Z,69.15
2019-03-05T08:02:16.740Z,69.34
2019-03-05T08:02:57.355Z,69.15
2019-03-05T08:03:37.945Z,69.44
2019-03-05T08:04:18.561Z,69.06
2019-03-05T08:04:59.167Z,69.34
2019-03-05T08:05:39.778Z,68.96
2019-03-05T08:06:20.366Z,68.86
2019-03-05T08:07:00.972Z,69.53
2019-03-05T08:07:41.569Z,69.34
2019-03-05T08:08:26.502Z,69.34
2019-03-05T08:09:02.743Z,68.92
2019-03-05T08:09:43.337Z,69.24
2019-03-05T08:10:23.921Z,68.86
2019-03-05T08:11:04.519Z,69.06
2019-03-05T08:11:45.125Z,69.06
2019-03-05T08:12:25.739Z,68.96
2019-03-05T08:13:06.324Z,68.76
2019-03-05T08:13:46.918Z,68.86
2019-03-05T08:14:27.510Z,68.76
2019-03-05T08:15:08.109Z,68.86
2019-03-05T08:15:48.709Z,68.86
2019-03-05T08:16:29.295Z,69.15
2019-03-05T08:17:09.903Z,69.06
2019-03-05T08:17:50.497Z,68.76
2019-03-05T08:18:31.094Z,68.48
2019-03-05T08:19:11.677Z,68.67
2019-03-05T08:19:52.275Z,68.48
2019-03-05T08:20:32.858Z,68.67
2019-03-05T08:21:13.449Z,68.38
2019-03-05T08:21:54.055Z,68.67
2019-03-05T08:22:34.630Z,68.48
2019-03-05T08:23:15.296Z,68.96
2019-03-05T08:23:55.896Z,68.86
2019-03-05T08:24:36.488Z,68.67
2019-03-05T08:25:17.104Z,68.48
2019-03-05T08:25:57.808Z,68.76
2019-03-05T08:26:38.412Z,68.86
2019-03-05T08:27:19.006Z,68.67
2019-03-05T08:28:00.915Z,68.48
2019-03-05T08:28:41.922Z,68.67
2019-03-05T08:29:22.569Z,68.48
2019-03-05T08:30:13.656Z,68.67
2019-03-05T08:30:43.772Z,68.76
2019-03-05T08:31:24.373Z,68.57
2019-03-05T08:32:05.093Z,68.67
2019-03-05T08:32:45.684Z,68.76
2019-03-05T08:33:26.282Z,68.76
2019-03-05T08:34:06.886Z,68.48
2019-03-05T08:34:47.510Z,68.67
2019-03-05T08:35:28.101Z,68.67
2019-03-05T08:36:08.696Z,68.76
2019-03-05T08:36:49.299Z,68.67
2019-03-05T08:37:29.884Z,68.67
2019-03-05T08:38:10.482Z,68.57
2019-03-05T08:38:51.066Z,68.67
2019-03-05T08:39:31.658Z,68.57
2019-03-05T08:40:12.262Z,68.48
2019-03-05T08:40:52.845Z,68.48
2019-03-05T08:41:33.440Z,68.57
2019-03-05T08:42:14.049Z,68.48
2019-03-05T08:42:54.644Z,68.48
2019-03-05T08:43:35.243Z,68.38
2019-03-05T08:44:15.848Z,68.96
2019-03-05T08:44:56.452Z,68.86
2019-03-05T08:45:37.043Z,68.96
2019-03-05T08:46:17.649Z,68.86
2019-03-05T08:46:58.229Z,69.15